createdAt,value
2017-08-14T00:00:06.949Z,98924.72
2017-08-14T00:02:34.396Z,98918.95
2017-08-14T00:05:01.845Z,98915.45
2017-08-14T00:07:29.313Z,98913.97
2017-08-14T00:09:56.780Z,98919.80
2017-08-14T00:12:24.226Z,98918.59
2017-08-14T00:14:51.724Z,98909.31
2017-08-14T00:17:19.176Z,98911.76
2017-08-14T00:19:46.641Z,98909.89
2017-08-14T00:22:14.085Z,98907.27
2017-08-14T00:24:41.539Z,98911.33
2017-08-14T00:27:09.001Z,98906.34
2017-08-14T00:29:36.479Z,98906.16
2017-08-14T00:32:03.921Z,98903.77
2017-08-14T00:34:31.382Z,98903.98
2017-08-14T00:36:58.831Z,98902.25
2017-08-14T00:39:26.280Z,98909.52
2017-08-14T00:41:53.763Z,98908.97
2017-08-14T00:44:21.215Z,98907.82
2017-08-14T00:46:48.692Z,98910.94
2017-08-14T00:49:16.142Z,98913.67
2017-08-14T00:51:43.596Z,98909.48
2017-08-14T00:56:47.677Z,98912.73
2017-08-14T00:59:15.148Z,98913.11
2017-08-14T01:01:42.599Z,98913.26
2017-08-14T01:04:10.074Z,98911.21
2017-08-14T01:06:37.524Z,98914.55
2017-08-14T01:09:05.004Z,98911.95
2017-08-14T01:11:32.461Z,98914.10
2017-08-14T01:13:59.928Z,98909.13
2017-08-14T01:16:27.411Z,98909.55
2017-08-14T01:18:54.868Z,98907.00
2017-08-14T01:21:22.348Z,98905.71
2017-08-14T01:23:49.793Z,98907.76
2017-08-14T01:26:17.271Z,98910.59
2017-08-14T01:28:44.753Z,98912.31
2017-08-14T01:31:12.243Z,98907.67
2017-08-14T01:33:39.704Z,98905.26
2017-08-14T01:36:07.153Z,98900.69
2017-08-14T01:38:34.633Z,98901.55
2017-08-14T01:41:02.090Z,98902.98
2017-08-14T01:43:29.573Z,98910.25
2017-08-14T01:45:57.013Z,98902.92
2017-08-14T01:48:24.469Z,98899.80
2017-08-14T01:50:51.954Z,98899.41
2017-08-14T01:53:19.412Z,98899.71
2017-08-14T01:55:46.869Z,98894.90
2017-08-14T01:58:14.344Z,98890.11
2017-08-14T02:00:41.796Z,98886.09
2017-08-14T02:03:09.252Z,98892.10
2017-08-14T02:05:36.716Z,98889.14
2017-08-14T02:08:04.171Z,98884.98
2017-08-14T02:10:31.652Z,98890.47
2017-08-14T02:12:59.131Z,98891.77
2017-08-14T02:15:26.580Z,98892.68
2017-08-14T02:17:54.029Z,98897.69
2017-08-14T02:20:21.500Z,98901.23
2017-08-14T02:22:48.948Z,98900.84
2017-08-14T02:25:16.420Z,98901.48
2017-08-14T02:27:43.878Z,98907.88
2017-08-14T02:30:11.329Z,98898.88
2017-08-14T02:32:38.810Z,98905.91
2017-08-14T02:35:06.252Z,98905.58
2017-08-14T02:37:33.720Z,98902.64
2017-08-14T02:40:01.161Z,98901.36
2017-08-14T02:42:28.638Z,98907.66
2017-08-14T02:44:56.112Z,98898.03
2017-08-14T02:47:23.556Z,98895.73
2017-08-14T02:49:51.032Z,98897.66
2017-08-14T02:52:18.485Z,98906.33
2017-08-14T02:54:45.940Z,98902.36
2017-08-14T02:57:13.407Z,98904.84
2017-08-14T02:59:40.854Z,98906.38
2017-08-14T03:02:08.325Z,98905.05
2017-08-14T03:04:35.785Z,98902.81
2017-08-14T03:07:03.254Z,98897.72
2017-08-14T03:09:30.740Z,98897.19
2017-08-14T03:11:58.212Z,98904.77
2017-08-14T03:14:25.653Z,98907.03
2017-08-14T03:16:53.127Z,98906.58
2017-08-14T03:19:20.569Z,98903.76
2017-08-14T03:21:48.072Z,98911.75
2017-08-14T03:24:15.538Z,98908.91
2017-08-14T03:26:42.988Z,98905.48
2017-08-14T03:29:10.457Z,98905.84
2017-08-14T03:31:37.914Z,98909.84
2017-08-14T03:34:05.361Z,98912.84
2017-08-14T03:36:32.834Z,98911.56
2017-08-14T03:39:00.292Z,98919.44
2017-08-14T03:41:27.760Z,98916.25
2017-08-14T03:43:55.211Z,98916.90
2017-08-14T03:46:22.695Z,98914.66
2017-08-14T03:48:50.148Z,98926.70
2017-08-14T03:51:17.591Z,98921.64
2017-08-14T03:53:45.052Z,98928.44
2017-08-14T03:56:12.510Z,98926.47
2017-08-14T03:58:39.982Z,98922.19
2017-08-14T04:01:07.426Z,98922.31
2017-08-14T04:03:34.896Z,98923.67
2017-08-14T04:06:02.346Z,98926.96
2017-08-14T04:08:29.789Z,98928.38
2017-08-14T04:10:57.267Z,98931.33
2017-08-14T04:13:24.717Z,98927.15
2017-08-14T04:15:52.209Z,98919.89
2017-08-14T04:18:19.650Z,98926.05
2017-08-14T04:20:47.090Z,98917.30
2017-08-14T04:23:14.569Z,98923.73
2017-08-14T04:25:42.005Z,98926.52
2017-08-14T04:28:09.453Z,98934.75
2017-08-14T04:30:36.912Z,98937.69
2017-08-14T04:33:04.358Z,98938.55
2017-08-14T04:35:31.820Z,98931.82
2017-08-14T04:37:59.263Z,98933.78
2017-08-14T04:40:26.731Z,98933.02
2017-08-14T04:42:54.172Z,98940.36
2017-08-14T04:45:21.621Z,98931.03
2017-08-14T04:47:49.100Z,98925.21
2017-08-14T04:50:16.554Z,98928.95
2017-08-14T04:52:44.000Z,98925.36
2017-08-14T04:55:11.472Z,98921.10
2017-08-14T04:57:38.922Z,98924.73
2017-08-14T05:00:06.376Z,98926.28
2017-08-14T05:02:33.825Z,98925.48
2017-08-14T05:05:01.297Z,98919.22
2017-08-14T05:07:28.748Z,98925.27
2017-08-14T05:09:56.194Z,98928.31
2017-08-14T05:12:23.664Z,98931.73
2017-08-14T05:14:51.108Z,98936.53
2017-08-14T05:17:18.592Z,98929.89
2017-08-14T05:19:46.039Z,98932.14
2017-08-14T05:22:13.488Z,98931.11
2017-08-14T05:24:40.968Z,98928.17
2017-08-14T05:27:08.436Z,98927.33
2017-08-14T05:29:35.885Z,98927.31
2017-08-14T05:32:03.373Z,98923.06
2017-08-14T05:34:30.824Z,98922.61
2017-08-14T05:36:58.293Z,98926.20
2017-08-14T05:39:25.780Z,98920.59
2017-08-14T05:41:53.240Z,98921.50
2017-08-14T05:44:20.693Z,98913.45
2017-08-14T05:46:48.196Z,98921.11
2017-08-14T05:49:15.668Z,98925.94
2017-08-14T05:51:43.113Z,98924.47
2017-08-14T05:54:10.586Z,98928.94
2017-08-14T05:56:38.061Z,98926.37
2017-08-14T05:59:05.518Z,98921.36
2017-08-14T06:01:32.970Z,98921.55
2017-08-14T06:04:00.447Z,98927.27
2017-08-14T06:06:27.919Z,98931.22
2017-08-14T06:08:55.369Z,98927.48
2017-08-14T06:11:22.833Z,98933.27
2017-08-14T06:13:50.299Z,98931.95
2017-08-14T06:16:17.741Z,98932.23
2017-08-14T06:18:45.213Z,98935.73
2017-08-14T06:21:12.652Z,98934.09
2017-08-14T06:23:40.099Z,98932.45
2017-08-14T06:26:07.576Z,98928.61
2017-08-14T06:28:35.022Z,98925.55
2017-08-14T06:31:02.480Z,98926.33
2017-08-14T06:33:29.954Z,98923.00
2017-08-14T06:35:57.402Z,98929.61
2017-08-14T06:38:24.853Z,98930.37
2017-08-14T06:40:52.333Z,98931.73
2017-08-14T06:43:19.782Z,98929.62
2017-08-14T06:48:23.987Z,98929.69
2017-08-14T06:50:51.442Z,98921.23
2017-08-14T06:53:18.898Z,98921.89
2017-08-14T06:55:46.368Z,98921.09
2017-08-14T06:58:13.812Z,98926.77
2017-08-14T07:00:41.262Z,98925.34
2017-08-14T07:03:08.765Z,98931.79
2017-08-14T07:05:36.244Z,98928.36
2017-08-14T07:08:03.691Z,98931.34
2017-08-14T07:10:31.169Z,98924.03
2017-08-14T07:12:58.615Z,98925.64
2017-08-14T07:15:26.061Z,98920.09
2017-08-14T07:17:53.548Z,98920.35
2017-08-14T07:20:20.998Z,98922.59
2017-08-14T07:22:48.440Z,98927.60
2017-08-14T07:25:15.904Z,98926.84
2017-08-14T07:27:43.345Z,98931.16
2017-08-14T07:30:10.784Z,98933.48
2017-08-14T07:32:38.257Z,98929.12
2017-08-14T07:35:05.724Z,98927.22
2017-08-14T07:37:33.168Z,98922.41
2017-08-14T07:40:00.636Z,98919.87
2017-08-14T07:42:28.096Z,98920.36
2017-08-14T07:44:55.554Z,98921.69
2017-08-14T07:47:23.019Z,98921.08
2017-08-14T07:49:50.492Z,98925.02
2017-08-14T07:52:17.935Z,98921.59
2017-08-14T07:54:45.404Z,98918.36
2017-08-14T07:57:12.853Z,98918.17
2017-08-14T07:59:40.299Z,98909.34
2017-08-14T08:02:07.772Z,98912.78
2017-08-14T08:04:35.223Z,98908.14
2017-08-14T08:07:02.672Z,98907.64
2017-08-14T08:09:30.142Z,98908.72
2017-08-14T08:11:57.591Z,98912.96
2017-08-14T08:14:25.037Z,98907.20
2017-08-14T08:16:52.508Z,98903.43
2017-08-14T08:19:19.948Z,98904.97
2017-08-14T08:21:47.410Z,98906.78
2017-08-14T08:24:14.959Z,98904.25
2017-08-14T08:26:42.416Z,98907.65
2017-08-14T08:29:09.864Z,98913.30
2017-08-14T08:31:37.337Z,98913.36
2017-08-14T08:34:04.796Z,98908.78
2017-08-14T08:36:32.285Z,98910.97
2017-08-14T08:38:59.734Z,98910.50
2017-08-14T08:41:27.180Z,98913.28
2017-08-14T08:43:54.666Z,98914.45
2017-08-14T08:46:22.109Z,98913.59
2017-08-14T08:48:49.864Z,98917.05
2017-08-14T08:51:17.329Z,98907.74
2017-08-14T08:53:44.797Z,98913.07
2017-08-14T08:56:12.269Z,98910.39
2017-08-14T08:58:39.716Z,98913.00
2017-08-14T09:01:07.162Z,98903.92
2017-08-14T09:03:34.635Z,98906.92
2017-08-14T09:06:02.168Z,98902.38
2017-08-14T09:08:29.612Z,98899.50
2017-08-14T09:10:57.076Z,98902.53
2017-08-14T09:13:25.413Z,98903.50
2017-08-14T09:15:52.856Z,98896.45
2017-08-14T09:18:20.342Z,98892.27
2017-08-14T09:20:47.796Z,98890.29
2017-08-14T09:23:15.233Z,98895.91
2017-08-14T09:25:42.704Z,98897.08
2017-08-14T09:28:10.146Z,98893.30
2017-08-14T09:30:37.590Z,98895.80
2017-08-14T09:33:05.058Z,98887.09
2017-08-14T09:35:32.498Z,98885.09
2017-08-14T09:37:59.969Z,98890.94
2017-08-14T09:40:27.419Z,98886.81
2017-08-14T09:42:54.860Z,98884.03
2017-08-14T09:45:22.330Z,98881.39
2017-08-14T09:47:49.781Z,98888.87
2017-08-14T09:50:17.232Z,98877.82
2017-08-14T09:52:44.694Z,98875.61
2017-08-14T09:55:12.168Z,98878.58
2017-08-14T09:57:39.604Z,98880.47
2017-08-14T10:00:07.037Z,98875.03
2017-08-14T10:02:34.504Z,98876.20
2017-08-14T10:05:01.968Z,98877.31
2017-08-14T10:07:29.433Z,98873.78
2017-08-14T10:09:56.918Z,98868.52
2017-08-14T10:12:24.369Z,98869.77
2017-08-14T10:14:51.814Z,98862.28
2017-08-14T10:17:19.297Z,98868.47
2017-08-14T10:19:46.750Z,98861.17
2017-08-14T10:22:14.193Z,98860.53
2017-08-14T10:24:41.661Z,98857.72
2017-08-14T10:27:09.112Z,98859.80
2017-08-14T10:29:36.566Z,98858.70
2017-08-14T10:32:04.033Z,98858.71
2017-08-14T10:34:31.477Z,98858.75
2017-08-14T10:36:58.950Z,98853.03
2017-08-14T10:39:26.397Z,98851.18
2017-08-14T10:41:53.865Z,98847.50
2017-08-14T10:44:21.305Z,98847.53
2017-08-14T10:46:48.753Z,98847.03
2017-08-14T10:49:16.219Z,98846.98
2017-08-14T10:51:43.693Z,98841.41
2017-08-14T10:54:11.139Z,98837.29
2017-08-14T10:56:38.584Z,98833.68
2017-08-14T10:59:06.800Z,98831.87
2017-08-14T11:01:34.255Z,98833.36
2017-08-14T11:04:01.715Z,98828.25
2017-08-14T11:06:29.160Z,98827.07
2017-08-14T11:08:56.628Z,98822.70
2017-08-14T11:11:24.074Z,98824.00
2017-08-14T11:13:51.528Z,98822.23
2017-08-14T11:16:18.989Z,98823.80
2017-08-14T11:18:46.464Z,98819.07
2017-08-14T11:21:13.921Z,98824.83
2017-08-14T11:23:41.355Z,98811.98
2017-08-14T11:26:08.835Z,98813.08
2017-08-14T11:28:36.310Z,98810.09
2017-08-14T11:31:03.780Z,98809.64
2017-08-14T11:33:31.219Z,98802.18
2017-08-14T11:35:58.689Z,98800.52
2017-08-14T11:38:26.177Z,98797.88
2017-08-14T11:40:53.618Z,98796.13
2017-08-14T11:43:21.096Z,98800.12
2017-08-14T11:45:48.537Z,98790.34
2017-08-14T11:48:16.009Z,98787.44
2017-08-14T11:50:43.468Z,98791.60
2017-08-14T11:53:10.924Z,98790.36
2017-08-14T11:55:38.421Z,98782.35
2017-08-14T11:58:05.916Z,98785.05
2017-08-14T12:00:33.361Z,98781.52
2017-08-14T12:03:00.810Z,98784.00
2017-08-14T12:05:28.280Z,98778.89
2017-08-14T12:07:55.724Z,98778.55
2017-08-14T12:10:23.173Z,98769.36
2017-08-14T12:12:50.637Z,98767.80
2017-08-14T12:15:18.086Z,98769.42
2017-08-14T12:17:45.525Z,98767.23
2017-08-14T12:20:13.001Z,98763.66
2017-08-14T12:22:40.446Z,98759.59
2017-08-14T12:25:07.913Z,98755.63
2017-08-14T12:27:35.363Z,98755.23
2017-08-14T12:30:02.829Z,98745.88
2017-08-14T12:32:30.275Z,98747.34
2017-08-14T12:34:57.724Z,98750.80
2017-08-14T12:37:25.189Z,98740.72
2017-08-14T12:39:52.637Z,98741.06
2017-08-14T12:42:20.105Z,98735.70
2017-08-14T12:44:47.564Z,98734.51
2017-08-14T12:47:15.020Z,98732.46
2017-08-14T12:49:42.518Z,98727.55
2017-08-14T12:52:09.965Z,98724.92
2017-08-14T12:54:37.430Z,98719.48
2017-08-14T12:57:04.881Z,98723.64
2017-08-14T12:59:32.357Z,98719.19
2017-08-14T13:01:59.796Z,98715.44
2017-08-14T13:04:27.259Z,98713.97
2017-08-14T13:06:54.699Z,98715.52
2017-08-14T13:09:22.157Z,98720.13
2017-08-14T13:11:49.621Z,98708.52
2017-08-14T13:14:17.071Z,98713.92
2017-08-14T13:16:44.510Z,98714.75
2017-08-14T13:19:11.990Z,98714.43
2017-08-14T13:21:39.439Z,98706.97
2017-08-14T13:24:06.926Z,98699.42
2017-08-14T13:26:34.419Z,98706.67
2017-08-14T13:29:01.864Z,98705.77
2017-08-14T13:31:29.312Z,98708.00
2017-08-14T13:33:56.785Z,98701.67
2017-08-14T13:36:24.225Z,98703.61
2017-08-14T13:38:51.710Z,98701.95
2017-08-14T13:41:19.152Z,98700.04
2017-08-14T13:43:46.620Z,98696.32
2017-08-14T13:46:14.061Z,98690.98
2017-08-14T13:48:41.949Z,98692.34
2017-08-14T13:51:09.426Z,98689.66
2017-08-14T13:53:36.898Z,98685.59
2017-08-14T13:56:04.363Z,98683.44
2017-08-14T13:58:31.808Z,98682.02
2017-08-14T14:00:59.295Z,98676.57
2017-08-14T14:03:26.743Z,98679.72
2017-08-14T14:05:54.190Z,98667.87
2017-08-14T14:08:21.648Z,98673.55
2017-08-14T14:10:49.095Z,98665.73
2017-08-14T14:13:16.562Z,98665.72
2017-08-14T14:15:44.013Z,98661.23
2017-08-14T14:18:11.449Z,98663.61
2017-08-14T14:20:38.921Z,98660.97
2017-08-14T14:23:06.373Z,98659.59
2017-08-14T14:25:33.852Z,98659.39
2017-08-14T14:28:01.304Z,98662.47
2017-08-14T14:30:28.769Z,98664.66
2017-08-14T14:32:56.213Z,98651.50
2017-08-14T14:35:23.685Z,98658.73
2017-08-14T14:37:51.128Z,98657.58
2017-08-14T14:40:18.585Z,98646.88
2017-08-14T14:42:46.065Z,98650.19
2017-08-14T14:45:13.512Z,98642.30
2017-08-14T14:47:40.953Z,98637.05
2017-08-14T14:50:08.437Z,98637.31
2017-08-14T14:52:35.882Z,98643.16
2017-08-14T14:55:03.348Z,98635.95
2017-08-14T14:57:30.798Z,98630.69
2017-08-14T14:59:58.264Z,98631.20
2017-08-14T15:02:25.729Z,98629.96
2017-08-14T15:04:53.177Z,98633.61
2017-08-14T15:07:20.640Z,98629.70
2017-08-14T15:09:48.093Z,98634.13
2017-08-14T15:12:15.536Z,98638.20
2017-08-14T15:14:43.028Z,98624.54
2017-08-14T15:17:10.502Z,98626.12
2017-08-14T15:19:37.941Z,98635.30
2017-08-14T15:22:05.396Z,98628.98
2017-08-14T15:24:32.869Z,98636.16
2017-08-14T15:27:00.316Z,98635.02
2017-08-14T15:29:27.781Z,98633.61
2017-08-14T15:31:55.264Z,98619.47
2017-08-14T15:34:22.712Z,98629.52
2017-08-14T15:36:50.169Z,98629.13
2017-08-14T15:39:17.633Z,98624.28
2017-08-14T15:41:45.082Z,98628.47
2017-08-14T15:44:12.553Z,98629.06
2017-08-14T15:46:40.030Z,98627.00
2017-08-14T15:49:07.499Z,98628.56
2017-08-14T15:51:34.969Z,98624.05
2017-08-14T15:54:02.478Z,98625.61
2017-08-14T15:56:29.943Z,98617.69
2017-08-14T15:58:57.381Z,98619.07
2017-08-14T16:01:24.893Z,98622.64
2017-08-14T16:03:52.346Z,98624.80
2017-08-14T16:06:19.816Z,98625.83
2017-08-14T16:08:47.285Z,98627.27
2017-08-14T16:11:14.748Z,98623.17
2017-08-14T16:13:42.193Z,98627.44
2017-08-14T16:16:09.689Z,98619.83
2017-08-14T16:18:37.181Z,98615.83
2017-08-14T16:21:04.670Z,98616.77
2017-08-14T16:23:32.126Z,98619.88
2017-08-14T16:25:59.569Z,98621.00
2017-08-14T16:28:27.045Z,98623.53
2017-08-14T16:30:54.492Z,98631.38
2017-08-14T16:33:21.992Z,98621.40
2017-08-14T16:35:49.467Z,98624.61
2017-08-14T16:38:16.917Z,98625.67
2017-08-14T16:40:44.381Z,98627.69
2017-08-14T16:43:11.876Z,98623.87
2017-08-14T16:45:39.336Z,98629.63
2017-08-14T16:48:06.776Z,98631.89
2017-08-14T16:50:34.256Z,98631.18
2017-08-14T16:53:01.706Z,98624.20
2017-08-14T16:55:29.177Z,98631.78
2017-08-14T16:57:56.625Z,98630.52
2017-08-14T17:00:24.070Z,98631.56
2017-08-14T17:02:51.538Z,98636.13
2017-08-14T17:05:19.021Z,98626.41
2017-08-14T17:07:46.500Z,98625.14
2017-08-14T17:10:13.944Z,98630.58
2017-08-14T17:12:41.417Z,98629.22
2017-08-14T17:15:08.912Z,98632.42
2017-08-14T17:17:36.353Z,98637.78
2017-08-14T17:20:04.681Z,98637.45
2017-08-14T17:22:32.176Z,98634.38
2017-08-14T17:24:59.652Z,98632.08
2017-08-14T17:27:27.112Z,98637.32
2017-08-14T17:29:54.577Z,98635.89
2017-08-14T17:32:22.038Z,98631.45
2017-08-14T17:34:49.490Z,98627.95
2017-08-14T17:37:16.934Z,98634.61
2017-08-14T17:39:44.425Z,98633.58
2017-08-14T17:42:11.872Z,98639.63
2017-08-14T17:44:39.345Z,98643.95
2017-08-14T17:47:06.790Z,98636.92
2017-08-14T17:49:34.244Z,98640.26
2017-08-14T17:52:01.714Z,98642.81
2017-08-14T17:54:29.154Z,98640.91
2017-08-14T17:56:56.625Z,98646.67
2017-08-14T17:59:24.099Z,98644.45
2017-08-14T18:01:51.580Z,98645.42
2017-08-14T18:04:19.024Z,98649.82
2017-08-14T18:06:46.502Z,98648.02
2017-08-14T18:09:13.952Z,98656.79
2017-08-14T18:11:41.440Z,98651.84
2017-08-14T18:14:08.899Z,98657.78
2017-08-14T18:16:36.343Z,98664.01
2017-08-14T18:19:03.822Z,98665.16
2017-08-14T18:21:31.286Z,98664.67
2017-08-14T18:23:58.759Z,98666.61
2017-08-14T18:26:26.209Z,98669.14
2017-08-14T18:28:53.699Z,98676.05
2017-08-14T18:31:21.139Z,98667.87
2017-08-14T18:33:48.589Z,98665.99
2017-08-14T18:36:16.094Z,98673.73
2017-08-14T18:38:43.543Z,98686.45
2017-08-14T18:41:10.984Z,98688.12
2017-08-14T18:43:38.461Z,98691.33
2017-08-14T18:46:05.904Z,98690.58
2017-08-14T18:48:33.358Z,98695.77
2017-08-14T18:51:00.828Z,98695.34
2017-08-14T18:53:28.273Z,98701.20
2017-08-14T18:55:55.750Z,98703.81
2017-08-14T18:58:23.220Z,98697.87
2017-08-14T19:00:50.682Z,98697.21
2017-08-14T19:03:18.226Z,98706.08
2017-08-14T19:05:45.672Z,98703.66
2017-08-14T19:08:14.657Z,98701.96
2017-08-14T19:10:40.652Z,98703.47
2017-08-14T19:13:08.098Z,98704.90
2017-08-14T19:15:35.569Z,98695.18
2017-08-14T19:18:03.018Z,98698.41
2017-08-14T19:20:30.493Z,98695.23
2017-08-14T19:22:57.937Z,98696.99
2017-08-14T19:25:25.384Z,98702.06
2017-08-14T19:27:52.858Z,98697.57
2017-08-14T19:30:20.305Z,98687.66
2017-08-14T19:32:47.753Z,98694.55
2017-08-14T19:35:15.217Z,98690.70
2017-08-14T19:37:42.673Z,98691.96
2017-08-14T19:40:10.141Z,98692.02
2017-08-14T19:42:37.614Z,98695.11
2017-08-14T19:45:05.061Z,98692.36
2017-08-14T19:47:32.528Z,98693.25
2017-08-14T19:49:59.977Z,98691.07
2017-08-14T19:52:27.423Z,98692.53
2017-08-14T19:54:55.789Z,98696.66
2017-08-14T19:57:23.233Z,98690.89
2017-08-14T19:59:50.682Z,98704.48
2017-08-14T20:02:18.149Z,98708.59
2017-08-14T20:04:45.593Z,98705.29
2017-08-14T20:07:13.057Z,98703.99
2017-08-14T20:09:40.500Z,98706.16
2017-08-14T20:12:07.961Z,98706.92
2017-08-14T20:14:35.410Z,98708.44
2017-08-14T20:17:02.895Z,98714.38
2017-08-14T20:19:30.345Z,98713.69
2017-08-14T20:21:57.792Z,98723.08
2017-08-14T20:24:25.261Z,98724.72
2017-08-14T20:26:52.714Z,98722.83
2017-08-14T20:29:20.186Z,98720.87
2017-08-14T20:31:47.652Z,98721.42
2017-08-14T20:34:15.095Z,98721.05
2017-08-14T20:36:42.566Z,98716.20
2017-08-14T20:39:10.043Z,98721.48
2017-08-14T20:41:37.501Z,98721.95
2017-08-14T20:44:04.969Z,98725.92
2017-08-14T20:46:32.436Z,98727.41
2017-08-14T20:48:59.881Z,98723.47
2017-08-14T20:51:27.323Z,98725.36
2017-08-14T20:53:54.796Z,98718.30
2017-08-14T20:56:22.237Z,98718.06
2017-08-14T20:58:51.508Z,98718.80
2017-08-14T21:01:19.074Z,98712.56
2017-08-14T21:03:46.523Z,98712.84
2017-08-14T21:06:13.974Z,98712.67
2017-08-14T21:08:41.444Z,98710.91
2017-08-14T21:11:08.904Z,98717.17
2017-08-14T21:13:36.378Z,98714.61
2017-08-14T21:16:03.841Z,98713.15
2017-08-14T21:18:31.286Z,98713.94
2017-08-14T21:20:58.773Z,98710.48
2017-08-14T21:23:26.220Z,98715.16
2017-08-14T21:25:53.680Z,98715.05
2017-08-14T21:28:21.159Z,98719.52
2017-08-14T21:30:48.606Z,98710.72
2017-08-14T21:33:16.054Z,98712.84
2017-08-14T21:35:43.534Z,98709.66
2017-08-14T21:38:10.994Z,98703.48
2017-08-14T21:40:38.462Z,98707.34
2017-08-14T21:43:05.913Z,98707.94
2017-08-14T21:45:33.381Z,98706.05
2017-08-14T21:48:00.847Z,98706.62
2017-08-14T21:50:28.293Z,98701.83
2017-08-14T21:52:55.761Z,98700.80
2017-08-14T21:55:23.205Z,98704.13
2017-08-14T21:57:50.650Z,98701.70
2017-08-14T22:00:18.122Z,98698.37
2017-08-14T22:02:45.568Z,98699.34
2017-08-14T22:05:13.045Z,98695.45
2017-08-14T22:07:40.502Z,98697.11
2017-08-14T22:10:07.950Z,98700.11
2017-08-14T22:12:35.414Z,98697.00
2017-08-14T22:15:02.852Z,98697.01
2017-08-14T22:17:30.326Z,98689.68
2017-08-14T22:19:57.786Z,98694.72
2017-08-14T22:22:25.266Z,98692.71
2017-08-14T22:24:52.715Z,98690.51
2017-08-14T22:27:20.180Z,98689.53
2017-08-14T22:29:47.646Z,98688.73
2017-08-14T22:32:15.092Z,98692.50
2017-08-14T22:34:42.573Z,98701.28
2017-08-14T22:37:10.017Z,98691.43
2017-08-14T22:39:37.468Z,98692.95
2017-08-14T22:42:04.928Z,98694.58
2017-08-14T22:44:32.385Z,98687.34
2017-08-14T22:46:59.864Z,98696.69
2017-08-14T22:49:27.317Z,98688.89
2017-08-14T22:51:54.764Z,98697.87
2017-08-14T22:54:22.234Z,98688.58
2017-08-14T22:56:49.684Z,98690.13
2017-08-14T22:59:17.150Z,98690.16
2017-08-14T23:01:44.606Z,98688.80
2017-08-14T23:04:12.051Z,98691.91
2017-08-14T23:06:39.523Z,98689.12
2017-08-14T23:09:06.969Z,98687.70
2017-08-14T23:11:34.451Z,98687.59
2017-08-14T23:14:01.904Z,98691.88
2017-08-14T23:16:29.348Z,98688.33
2017-08-14T23:18:56.826Z,98698.36
2017-08-14T23:21:24.273Z,98693.41
2017-08-14T23:23:51.753Z,98690.86
2017-08-14T23:26:19.198Z,98689.30
2017-08-14T23:28:46.673Z,98692.33
2017-08-14T23:31:14.140Z,98687.23
2017-08-14T23:33:41.609Z,98685.77
2017-08-14T23:36:09.056Z,98688.09
2017-08-14T23:38:36.499Z,98692.14
2017-08-14T23:41:03.963Z,98685.84
2017-08-14T23:43:31.410Z,98693.75
2017-08-14T23:45:58.853Z,98692.84
2017-08-14T23:48:26.326Z,98690.30
2017-08-14T23:50:53.769Z,98694.69
2017-08-14T23:53:21.237Z,98690.21
2017-08-14T23:55:48.708Z,98682.19
2017-08-14T23:58:16.153Z,98677.29
